sensor_id;sensor_type;location;lat;lon;timestamp;P1;P2;P0
62981;PMS5003;49075;53.988;27.678;2023-02-28T00:01:20;35.6;34.8;27
62981;PMS5003;49075;53.988;27.678;2023-02-28T00:07:11;37;36.2;28.8
62981;PMS5003;49075;53.988;27.678;2023-02-28T00:11:19;34.8;34.4;28.2
62981;PMS5003;49075;53.988;27.678;2023-02-28T00:17:01;36.6;36.4;28.4
62981;PMS5003;49075;53.988;27.678;2023-02-28T00:21:39;34.6;33.2;28.2
62981;PMS5003;49075;53.988;27.678;2023-02-28T00:26:47;28.8;28.8;23.4
62981;PMS5003;49075;53.988;27.678;2023-02-28T00:32:09;34.6;33.6;24.8
62981;PMS5003;49075;53.988;27.678;2023-02-28T00:36:33;37;36.2;27.6
62981;PMS5003;49075;53.988;27.678;2023-02-28T00:41:47;33;33;25.5
62981;PMS5003;49075;53.988;27.678;2023-02-28T00:46:59;39.4;37.6;29.8
62981;PMS5003;49075;53.988;27.678;2023-02-28T00:52:11;33.2;32;25.4
62981;PMS5003;49075;53.988;27.678;2023-02-28T00:56:41;30.6;30;24
62981;PMS5003;49075;53.988;27.678;2023-02-28T01:02:09;32.8;32;25.8
62981;PMS5003;49075;53.988;27.678;2023-02-28T01:06:33;33;31.8;26.8
62981;PMS5003;49075;53.988;27.678;2023-02-28T01:11:33;31.4;29;25.2
62981;PMS5003;49075;53.988;27.678;2023-02-28T01:17:09;33.6;32.8;27.8
62981;PMS5003;49075;53.988;27.678;2023-02-28T01:21:41;30.8;30.2;24.2
62981;PMS5003;49075;53.988;27.678;2023-02-28T01:27:09;36.6;34.8;26.6
62981;PMS5003;49075;53.988;27.678;2023-02-28T01:31:51;39.8;39.2;30.8
62981;PMS5003;49075;53.988;27.678;2023-02-28T01:36:31;35.6;33.6;27
62981;PMS5003;49075;53.988;27.678;2023-02-28T01:42:08;38.5;37.5;29.3
62981;PMS5003;49075;53.988;27.678;2023-02-28T01:46:57;45.2;42.6;33
62981;PMS5003;49075;53.988;27.678;2023-02-28T01:52:11;38;37;31
62981;PMS5003;49075;53.988;27.678;2023-02-28T01:56:55;36.2;35.6;27.4
62981;PMS5003;49075;53.988;27.678;2023-02-28T02:01:31;33.8;33.4;26.4
62981;PMS5003;49075;53.988;27.678;2023-02-28T02:07:11;40.2;38.2;30
62981;PMS5003;49075;53.988;27.678;2023-02-28T02:11:20;41.8;39.6;31
62981;PMS5003;49075;53.988;27.678;2023-02-28T02:17:13;37;35.8;27.2
62981;PMS5003;49075;53.988;27.678;2023-02-28T02:22:01;37.6;37.4;30.2
62981;PMS5003;49075;53.988;27.678;2023-02-28T02:26:33;41.2;39;29.4
62981;PMS5003;49075;53.988;27.678;2023-02-28T02:32:19;42;40.2;31.8
62981;PMS5003;49075;53.988;27.678;2023-02-28T02:36:59;34.8;34.8;26.4
62981;PMS5003;49075;53.988;27.678;2023-02-28T02:42:11;38;37.3;28.8
62981;PMS5003;49075;53.988;27.678;2023-02-28T02:46:58;46.4;43.8;33.2
62981;PMS5003;49075;53.988;27.678;2023-02-28T02:52:02;41;39.4;30.6
62981;PMS5003;49075;53.988;27.678;2023-02-28T02:57:10;43.4;40;30.4
62981;PMS5003;49075;53.988;27.678;2023-02-28T03:01:39;45.4;43.2;31.4
62981;PMS5003;49075;53.988;27.678;2023-02-28T03:06:47;43.6;41.6;31.2
62981;PMS5003;49075;53.988;27.678;2023-02-28T03:11:54;39.8;36.8;28.4
62981;PMS5003;49075;53.988;27.678;2023-02-28T03:16:33;41.8;40.4;30.8
62981;PMS5003;49075;53.988;27.678;2023-02-28T03:22:14;46.2;43.2;32.6
62981;PMS5003;49075;53.988;27.678;2023-02-28T03:26:42;39.2;38.2;29
62981;PMS5003;49075;53.988;27.678;2023-02-28T03:32:11;40;38.2;28.2
62981;PMS5003;49075;53.988;27.678;2023-02-28T03:36:52;45;43.2;32.2
62981;PMS5003;49075;53.988;27.678;2023-02-28T03:41:35;41.8;39.5;30.3
62981;PMS5003;49075;53.988;27.678;2023-02-28T03:47:10;38.6;37.6;29.4
62981;PMS5003;49075;53.988;27.678;2023-02-28T03:51:39;40;38.6;29.2
62981;PMS5003;49075;53.988;27.678;2023-02-28T03:57:10;47;44.2;34
62981;PMS5003;49075;53.988;27.678;2023-02-28T04:01:53;40.4;38.8;31.6
62981;PMS5003;49075;53.988;27.678;2023-02-28T04:06:49;49;46.8;34
62981;PMS5003;49075;53.988;27.678;2023-02-28T04:12:11;41.8;39.4;29.8
62981;PMS5003;49075;53.988;27.678;2023-02-28T04:16:19;43;40.2;29.2
62981;PMS5003;49075;53.988;27.678;2023-02-28T04:22:11;47.8;45.6;33.2
62981;PMS5003;49075;53.988;27.678;2023-02-28T04:26:40;57.6;51.4;36.2
62981;PMS5003;49075;53.988;27.678;2023-02-28T04:31:33;53;47.8;34.6
62981;PMS5003;49075;53.988;27.678;2023-02-28T04:37:09;48.6;44.8;33.4
62981;PMS5003;49075;53.988;27.678;2023-02-28T04:41:41;57;50.8;36.3
62981;PMS5003;49075;53.988;27.678;2023-02-28T04:47:09;45;42.8;32
62981;PMS5003;49075;53.988;27.678;2023-02-28T04:51:45;48.2;45.4;32.4
62981;PMS5003;49075;53.988;27.678;2023-02-28T04:56:29;50.2;45.6;33
62981;PMS5003;49075;53.988;27.678;2023-02-28T05:02:07;48.2;45.2;32.8
62981;PMS5003;49075;53.988;27.678;2023-02-28T05:06:37;43;41.8;30.8
62981;PMS5003;49075;53.988;27.678;2023-02-28T05:12:09;41.4;39.8;30.6
62981;PMS5003;49075;53.988;27.678;2023-02-28T05:16:53;45.8;44.2;32.6
62981;PMS5003;49075;53.988;27.678;2023-02-28T05:21:59;44.8;43;32.4
62981;PMS5003;49075;53.988;27.678;2023-02-28T05:26:53;48.6;45.2;33.2
62981;PMS5003;49075;53.988;27.678;2023-02-28T05:31:39;49.8;46.6;35.2
62981;PMS5003;49075;53.988;27.678;2023-02-28T05:37:10;43.2;41.4;30
62981;PMS5003;49075;53.988;27.678;2023-02-28T05:41:51;40.2;38.6;28.6
62981;PMS5003;49075;53.988;27.678;2023-02-28T05:46:19;48;45.3;33.3
62981;PMS5003;49075;53.988;27.678;2023-02-28T05:51:39;56.6;51;35.8
62981;PMS5003;49075;53.988;27.678;2023-02-28T05:56:55;49.4;46.2;33.4
62981;PMS5003;49075;53.988;27.678;2023-02-28T06:02:08;55.6;48.8;33.6
62981;PMS5003;49075;53.988;27.678;2023-02-28T06:06:51;46.8;43.8;30.8
62981;PMS5003;49075;53.988;27.678;2023-02-28T06:11:29;51.8;45;32.2
62981;PMS5003;49075;53.988;27.678;2023-02-28T06:16:51;55.6;46.8;33.4
62981;PMS5003;49075;53.988;27.678;2023-02-28T06:21:55;57.6;49.4;34.8
62981;PMS5003;49075;53.988;27.678;2023-02-28T06:27:09;51.4;45.2;30.8
62981;PMS5003;49075;53.988;27.678;2023-02-28T06:31:51;48.4;43.6;31.6
62981;PMS5003;49075;53.988;27.678;2023-02-28T06:36:43;53;45.6;31.8
62981;PMS5003;49075;53.988;27.678;2023-02-28T06:41:53;48.2;42.8;30.2
62981;PMS5003;49075;53.988;27.678;2023-02-28T06:46:27;50.8;44;30.3
62981;PMS5003;49075;53.988;27.678;2023-02-28T06:51:55;53.6;45.2;31.8
62981;PMS5003;49075;53.988;27.678;2023-02-28T06:56:51;53.6;46;32
62981;PMS5003;49075;53.988;27.678;2023-02-28T07:01:19;53.8;45.8;33.2
62981;PMS5003;49075;53.988;27.678;2023-02-28T07:06:51;47.4;41.8;29.2
62981;PMS5003;49075;53.988;27.678;2023-02-28T07:11:39;52.2;44.8;30.6
62981;PMS5003;49075;53.988;27.678;2023-02-28T07:17:09;48.2;41.8;28.8
62981;PMS5003;49075;53.988;27.678;2023-02-28T07:21:53;53;45;31
62981;PMS5003;49075;53.988;27.678;2023-02-28T07:26:45;47;40.6;27.6
62981;PMS5003;49075;53.988;27.678;2023-02-28T07:31:53;46;39.8;28
62981;PMS5003;49075;53.988;27.678;2023-02-28T07:36:27;49;41.8;27.6
62981;PMS5003;49075;53.988;27.678;2023-02-28T07:42:09;47;40.4;27.8
62981;PMS5003;49075;53.988;27.678;2023-02-28T07:46:43;51.3;43.3;30.5
62981;PMS5003;49075;53.988;27.678;2023-02-28T07:51:19;46.2;39.8;27.2
62981;PMS5003;49075;53.988;27.678;2023-02-28T07:56:51;44.6;38.6;27
62981;PMS5003;49075;53.988;27.678;2023-02-28T08:01:35;45.8;39.2;27.2
62981;PMS5003;49075;53.988;27.678;2023-02-28T08:07:09;45;38.4;26.6
62981;PMS5003;49075;53.988;27.678;2023-02-28T08:11:51;44.2;37.6;27
62981;PMS5003;49075;53.988;27.678;2023-02-28T08:16:29;43.4;37.2;26.2
62981;PMS5003;49075;53.988;27.678;2023-02-28T08:21:51;42.8;37;26.8
62981;PMS5003;49075;53.988;27.678;2023-02-28T08:26:39;41.6;35.4;25.4
62981;PMS5003;49075;53.988;27.678;2023-02-28T08:32:07;42.2;36.2;25.6
62981;PMS5003;49075;53.988;27.678;2023-02-28T08:36:51;43.2;37;27.4
62981;PMS5003;49075;53.988;27.678;2023-02-28T08:41:19;37.2;34.4;24.6
62981;PMS5003;49075;53.988;27.678;2023-02-28T08:46:37;37.5;34.3;24.8
62981;PMS5003;49075;53.988;27.678;2023-02-28T08:51:19;35.8;32.8;24.6
62981;PMS5003;49075;53.988;27.678;2023-02-28T08:57:07;33.4;31.6;22.6
62981;PMS5003;49075;53.988;27.678;2023-02-28T09:01:28;35.6;32.8;23.8
62981;PMS5003;49075;53.988;27.678;2023-02-28T09:06:20;38;34.2;25.2
62981;PMS5003;49075;53.988;27.678;2023-02-28T09:11:51;38.8;35;25.2
62981;PMS5003;49075;53.988;27.678;2023-02-28T09:16:29;38.2;33.6;24.8
62981;PMS5003;49075;53.988;27.678;2023-02-28T09:22:07;39.8;35.6;26.8
62981;PMS5003;49075;53.988;27.678;2023-02-28T09:26:21;37.4;33.8;24.2
62981;PMS5003;49075;53.988;27.678;2023-02-28T09:31:20;34.6;31.8;24.4
62981;PMS5003;49075;53.988;27.678;2023-02-28T09:36:51;36.6;32.6;23.2
62981;PMS5003;49075;53.988;27.678;2023-02-28T09:41:20;38.4;33.8;24.4
62981;PMS5003;49075;53.988;27.678;2023-02-28T09:47:08;46;38.8;27
62981;PMS5003;49075;53.988;27.678;2023-02-28T09:51:40;43.8;38.3;26.3
62981;PMS5003;49075;53.988;27.678;2023-02-28T09:56:20;42.2;36.6;26.2
62981;PMS5003;49075;53.988;27.678;2023-02-28T10:01:52;40.8;36;26.4
62981;PMS5003;49075;53.988;27.678;2023-02-28T10:06:40;38.4;34.4;24.4
62981;PMS5003;49075;53.988;27.678;2023-02-28T10:12:09;32;30.6;22
62981;PMS5003;49075;53.988;27.678;2023-02-28T10:16:21;33.8;30.6;23.8
62981;PMS5003;49075;53.988;27.678;2023-02-28T10:21:31;35.4;32.2;23.4
62981;PMS5003;49075;53.988;27.678;2023-02-28T10:26:49;28.4;28;21.2
62981;PMS5003;49075;53.988;27.678;2023-02-28T10:31:39;37.8;33.4;24.8
62981;PMS5003;49075;53.988;27.678;2023-02-28T10:37:07;35.6;32.6;24.4
62981;PMS5003;49075;53.988;27.678;2023-02-28T10:41:42;36.2;32.6;24.8
62981;PMS5003;49075;53.988;27.678;2023-02-28T10:46:19;34.4;31.8;24
62981;PMS5003;49075;53.988;27.678;2023-02-28T10:51:52;30.3;28.5;21.5
62981;PMS5003;49075;53.988;27.678;2023-02-28T10:57:05;34.6;31.8;23.6
62981;PMS5003;49075;53.988;27.678;2023-02-28T11:02:29;33.8;30.8;23.4
62981;PMS5003;49075;53.988;27.678;2023-02-28T11:06:37;31.8;30;23
62981;PMS5003;49075;53.988;27.678;2023-02-28T11:11:30;25;24.2;19.8
62981;PMS5003;49075;53.988;27.678;2023-02-28T11:17:12;33.4;30.2;22.4
62981;PMS5003;49075;53.988;27.678;2023-02-28T11:21:30;32.5;29.8;22
62981;PMS5003;49075;53.988;27.678;2023-02-28T11:27:05;38;34;25.6
62981;PMS5003;49075;53.988;27.678;2023-02-28T11:31:39;28.2;28;21.4
62981;PMS5003;49075;53.988;27.678;2023-02-28T11:36:20;27.6;26.8;20
62981;PMS5003;49075;53.988;27.678;2023-02-28T11:41:47;30;29;22
62981;PMS5003;49075;53.988;27.678;2023-02-28T11:46:37;28;26.8;20.2
62981;PMS5003;49075;53.988;27.678;2023-02-28T11:52:10;30.6;28.4;21.8
62981;PMS5003;49075;53.988;27.678;2023-02-28T11:56:29;32;30;23.2
62981;PMS5003;49075;53.988;27.678;2023-02-28T12:01:37;35.2;32;23
62981;PMS5003;49075;53.988;27.678;2023-02-28T12:06:50;37;33.3;23.7
62981;PMS5003;49075;53.988;27.678;2023-02-28T12:11:34;30.2;28.4;21.6
62981;PMS5003;49075;53.988;27.678;2023-02-28T12:17:13;29.2;28;21.2
62981;PMS5003;49075;53.988;27.678;2023-02-28T12:21:30;29.8;28.4;21.6
62981;PMS5003;49075;53.988;27.678;2023-02-28T12:26:44;30.2;28.8;21.8
62981;PMS5003;49075;53.988;27.678;2023-02-28T12:31:55;27.6;26.4;19.4
62981;PMS5003;49075;53.988;27.678;2023-02-28T12:36:41;33.8;31.4;23.2
62981;PMS5003;49075;53.988;27.678;2023-02-28T12:42:10;32.8;30.8;23.4
62981;PMS5003;49075;53.988;27.678;2023-02-28T12:46:28;29.8;29;22.2
62981;PMS5003;49075;53.988;27.678;2023-02-28T12:51:19;31.8;31.2;25.4
62981;PMS5003;49075;53.988;27.678;2023-02-28T12:56:54;33.2;31.8;24.2
62981;PMS5003;49075;53.988;27.678;2023-02-28T13:06:50;27;27;21
62981;PMS5003;49075;53.988;27.678;2023-02-28T13:11:37;32.6;31.4;24
62981;PMS5003;49075;53.988;27.678;2023-02-28T13:16:47;28.2;27.6;21.2
62981;PMS5003;49075;53.988;27.678;2023-02-28T13:22:15;37;36;28.2
62981;PMS5003;49075;53.988;27.678;2023-02-28T13:26:19;31.6;30.4;23.8
62981;PMS5003;49075;53.988;27.678;2023-02-28T13:36:41;34.2;34.2;26
62981;PMS5003;49075;53.988;27.678;2023-02-28T13:41:42;35.2;34.2;25.2
62981;PMS5003;49075;53.988;27.678;2023-02-28T13:47:28;40.2;37.8;27.8
62981;PMS5003;49075;53.988;27.678;2023-02-28T13:51:37;31;30.8;24.6
62981;PMS5003;49075;53.988;27.678;2023-02-28T13:56:57;33.6;31.8;25.2
62981;PMS5003;49075;53.988;27.678;2023-02-28T14:01:46;38.6;37;27.8
62981;PMS5003;49075;53.988;27.678;2023-02-28T14:06:24;32.3;31.5;25.8
62981;PMS5003;49075;53.988;27.678;2023-02-28T14:13:36;32.6;32;24.8
62981;PMS5003;49075;53.988;27.678;2023-02-28T14:16:36;32;32;25.4
62981;PMS5003;49075;53.988;27.678;2023-02-28T14:22:12;31.6;30.6;24.4
62981;PMS5003;49075;53.988;27.678;2023-02-28T14:26:51;31;30.4;24.2
62981;PMS5003;49075;53.988;27.678;2023-02-28T14:31:46;34.6;33.8;26.4
62981;PMS5003;49075;53.988;27.678;2023-02-28T14:37:11;31.8;31.4;24.6
62981;PMS5003;49075;53.988;27.678;2023-02-28T14:41:45;30.2;29.2;22.6
62981;PMS5003;49075;53.988;27.678;2023-02-28T14:46:57;35.8;33.6;26.2
62981;PMS5003;49075;53.988;27.678;2023-02-28T14:51:39;25.6;25.4;21.6
62981;PMS5003;49075;53.988;27.678;2023-02-28T14:56:57;28.4;28.4;23.4
62981;PMS5003;49075;53.988;27.678;2023-02-28T15:02:15;31;30.2;24.6
62981;PMS5003;49075;53.988;27.678;2023-02-28T15:06:32;37;35.3;26.5
62981;PMS5003;49075;53.988;27.678;2023-02-28T15:11:59;32.4;31.8;24.6
62981;PMS5003;49075;53.988;27.678;2023-02-28T15:16:28;29.2;27.8;23.8
62981;PMS5003;49075;53.988;27.678;2023-02-28T15:21:35;33.2;31.6;24.8
62981;PMS5003;49075;53.988;27.678;2023-02-28T15:27:11;27.6;27;23
62981;PMS5003;49075;53.988;27.678;2023-02-28T15:31:35;29;28.6;23.6
62981;PMS5003;49075;53.988;27.678;2023-02-28T15:36:57;29.6;28.8;23
62981;PMS5003;49075;53.988;27.678;2023-02-28T15:41:41;29.8;28;22.8
62981;PMS5003;49075;53.988;27.678;2023-02-28T15:46:53;29.2;28.6;23.4
62981;PMS5003;49075;53.988;27.678;2023-02-28T15:52:09;31.6;30.8;23.8
62981;PMS5003;49075;53.988;27.678;2023-02-28T15:56:32;33.6;31.8;25.2
62981;PMS5003;49075;53.988;27.678;2023-02-28T16:02:14;35.2;34;26.8
62981;PMS5003;49075;53.988;27.678;2023-02-28T16:06:24;30;29.8;23
62981;PMS5003;49075;53.988;27.678;2023-02-28T16:11:32;28;26.8;22.8
62981;PMS5003;49075;53.988;27.678;2023-02-28T16:17:20;29;28;22
62981;PMS5003;49075;53.988;27.678;2023-02-28T16:21:47;33.4;33.2;26.8
62981;PMS5003;49075;53.988;27.678;2023-02-28T16:26:57;33.4;33.2;26.6
62981;PMS5003;49075;53.988;27.678;2023-02-28T16:31:41;36.8;35.4;27.8
62981;PMS5003;49075;53.988;27.678;2023-02-28T16:36:31;31.4;31;24.4
62981;PMS5003;49075;53.988;27.678;2023-02-28T16:42:09;28.4;26.6;22.2
62981;PMS5003;49075;53.988;27.678;2023-02-28T16:46:48;33.4;31;24.8
62981;PMS5003;49075;53.988;27.678;2023-02-28T16:51:57;31.2;31.2;24.2
62981;PMS5003;49075;53.988;27.678;2023-02-28T16:56:43;32.2;31.2;24.2
62981;PMS5003;49075;53.988;27.678;2023-02-28T17:01:19;35.8;35.4;26.4
62981;PMS5003;49075;53.988;27.678;2023-02-28T17:07:10;31.3;30;25
62981;PMS5003;49075;53.988;27.678;2023-02-28T17:11:19;28.2;28.2;23.8
62981;PMS5003;49075;53.988;27.678;2023-02-28T17:17:09;36;34.2;26.2
62981;PMS5003;49075;53.988;27.678;2023-02-28T17:21:57;30.4;30.2;24.2
62981;PMS5003;49075;53.988;27.678;2023-02-28T17:27:09;31.6;30.6;24.8
62981;PMS5003;49075;53.988;27.678;2023-02-28T17:31:29;33.6;32.4;25.2
62981;PMS5003;49075;53.988;27.678;2023-02-28T17:36:43;34.8;33.4;25.4
62981;PMS5003;49075;53.988;27.678;2023-02-28T17:42:09;30.6;30.4;24.2
62981;PMS5003;49075;53.988;27.678;2023-02-28T17:46:47;32.6;32;26.2
62981;PMS5003;49075;53.988;27.678;2023-02-28T17:52:09;30.2;30.2;24.2
62981;PMS5003;49075;53.988;27.678;2023-02-28T17:56:43;26.2;26;21.6
62981;PMS5003;49075;53.988;27.678;2023-02-28T18:01:41;26.8;25.8;21.2
62981;PMS5003;49075;53.988;27.678;2023-02-28T18:07:08;23.6;23.4;20.2
62981;PMS5003;49075;53.988;27.678;2023-02-28T18:11:55;28.5;28.5;23
62981;PMS5003;49075;53.988;27.678;2023-02-28T18:17:09;29.6;28.8;23
62981;PMS5003;49075;53.988;27.678;2023-02-28T18:21:41;31.8;31.2;24.8
62981;PMS5003;49075;53.988;27.678;2023-02-28T18:26:31;31.4;30.2;24
62981;PMS5003;49075;53.988;27.678;2023-02-28T18:32:07;31.8;31.8;25.6
62981;PMS5003;49075;53.988;27.678;2023-02-28T18:36:57;22;22;18.4
62981;PMS5003;49075;53.988;27.678;2023-02-28T18:42:09;31.2;31;23.8
62981;PMS5003;49075;53.988;27.678;2023-02-28T18:46:20;25.2;24.8;20.4
62981;PMS5003;49075;53.988;27.678;2023-02-28T18:51:45;29;28.8;23.4
62981;PMS5003;49075;53.988;27.678;2023-02-28T18:57:08;33.8;33.2;25.4
62981;PMS5003;49075;53.988;27.678;2023-02-28T19:01:56;35.2;34.8;27.2
62981;PMS5003;49075;53.988;27.678;2023-02-28T19:07:09;29.6;28.2;23.4
62981;PMS5003;49075;53.988;27.678;2023-02-28T19:11:44;32.8;32;26.3
62981;PMS5003;49075;53.988;27.678;2023-02-28T19:16:20;35.2;34.6;28.2
62981;PMS5003;49075;53.988;27.678;2023-02-28T19:22:09;37.4;35.6;27.4
62981;PMS5003;49075;53.988;27.678;2023-02-28T19:26:53;32.8;31.6;25.6
62981;PMS5003;49075;53.988;27.678;2023-02-28T19:32:07;27.8;27.4;22.6
62981;PMS5003;49075;53.988;27.678;2023-02-28T19:36:44;36;35.6;27.4
62981;PMS5003;49075;53.988;27.678;2023-02-28T19:41:19;38;36.4;29.2
62981;PMS5003;49075;53.988;27.678;2023-02-28T19:47:09;35.8;34.2;28
62981;PMS5003;49075;53.988;27.678;2023-02-28T19:51:57;37;36.3;27.3
62981;PMS5003;49075;53.988;27.678;2023-02-28T19:57:08;32.6;32.2;26.8
62981;PMS5003;49075;53.988;27.678;2023-02-28T20:01:41;40.5;39.3;29.5
62981;PMS5003;49075;53.988;27.678;2023-02-28T20:06:19;31.8;31.2;25.2
62981;PMS5003;49075;53.988;27.678;2023-02-28T20:12:09;35.6;33.4;27
62981;PMS5003;49075;53.988;27.678;2023-02-28T20:16:21;36.2;33.8;25.6
62981;PMS5003;49075;53.988;27.678;2023-02-28T20:22:07;38.2;36.4;29.8
62981;PMS5003;49075;53.988;27.678;2023-02-28T20:26:19;39.2;38.6;28.8
62981;PMS5003;49075;53.988;27.678;2023-02-28T20:31:43;40;38;29.2
62981;PMS5003;49075;53.988;27.678;2023-02-28T20:37:09;41.6;39.2;30.6
62981;PMS5003;49075;53.988;27.678;2023-02-28T20:41:57;41.6;39;30.8
62981;PMS5003;49075;53.988;27.678;2023-02-28T20:47:09;40.6;38.6;29.4
62981;PMS5003;49075;53.988;27.678;2023-02-28T20:51:43;37.2;36.4;28.2
62981;PMS5003;49075;53.988;27.678;2023-02-28T20:56:41;34.3;33.3;26.3
62981;PMS5003;49075;53.988;27.678;2023-02-28T21:02:09;39.2;37.4;28.8
62981;PMS5003;49075;53.988;27.678;2023-02-28T21:06:57;37;35.4;28.4
62981;PMS5003;49075;53.988;27.678;2023-02-28T21:12:07;36.8;35.8;26.6
62981;PMS5003;49075;53.988;27.678;2023-02-28T21:16:29;35.8;35;26.8
62981;PMS5003;49075;53.988;27.678;2023-02-28T21:21:34;37.6;36;27.4
62981;PMS5003;49075;53.988;27.678;2023-02-28T21:26:29;32;31.6;25.8
62981;PMS5003;49075;53.988;27.678;2023-02-28T21:31:57;35;33.8;26
62981;PMS5003;49075;53.988;27.678;2023-02-28T21:37:07;33;31.6;23.4
62981;PMS5003;49075;53.988;27.678;2023-02-28T21:41:20;32.4;32.2;24.2
62981;PMS5003;49075;53.988;27.678;2023-02-28T21:46:41;35.8;34;25.6
62981;PMS5003;49075;53.988;27.678;2023-02-28T21:51:53;27.8;27.2;21.8
62981;PMS5003;49075;53.988;27.678;2023-02-28T21:56:57;32.3;32.3;25
62981;PMS5003;49075;53.988;27.678;2023-02-28T22:02:07;26.6;26.4;20.6
62981;PMS5003;49075;53.988;27.678;2023-02-28T22:06:30;29.8;28.8;23.4
62981;PMS5003;49075;53.988;27.678;2023-02-28T22:11:33;32.4;31.8;23.8
62981;PMS5003;49075;53.988;27.678;2023-02-28T22:16:41;31.6;31;23
62981;PMS5003;49075;53.988;27.678;2023-02-28T22:21:57;42;39.8;29.4
62981;PMS5003;49075;53.988;27.678;2023-02-28T22:27:07;31;30.6;22.6
62981;PMS5003;49075;53.988;27.678;2023-02-28T22:31:43;26;25.8;18.8
62981;PMS5003;49075;53.988;27.678;2023-02-28T22:36:43;30.2;29.8;23
62981;PMS5003;49075;53.988;27.678;2023-02-28T22:41:41;31;30.6;25.2
62981;PMS5003;49075;53.988;27.678;2023-02-28T22:46:57;35;34;27.6
62981;PMS5003;49075;53.988;27.678;2023-02-28T22:52:09;30;29.2;22.8
62981;PMS5003;49075;53.988;27.678;2023-02-28T22:56:41;36;35.2;26.2
62981;PMS5003;49075;53.988;27.678;2023-02-28T23:01:49;32.5;31.5;24.8
62981;PMS5003;49075;53.988;27.678;2023-02-28T23:06:34;35.2;34.4;26.8
62981;PMS5003;49075;53.988;27.678;2023-02-28T23:11:57;39.8;38.6;29.4
62981;PMS5003;49075;53.988;27.678;2023-02-28T23:17:07;36.8;35.6;27.6
62981;PMS5003;49075;53.988;27.678;2023-02-28T23:21:51;35.4;33.8;25.4
62981;PMS5003;49075;53.988;27.678;2023-02-28T23:26:40;38;36;27.2
62981;PMS5003;49075;53.988;27.678;2023-02-28T23:31:37;36.6;35.4;27.8
62981;PMS5003;49075;53.988;27.678;2023-02-28T23:37:03;40.2;37.4;28.4
62981;PMS5003;49075;53.988;27.678;2023-02-28T23:42:03;37;36.2;29.4
62981;PMS5003;49075;53.988;27.678;2023-02-28T23:46:39;29.6;29.2;24.2
62981;PMS5003;49075;53.988;27.678;2023-02-28T23:51:33;39.4;38.2;29.4
62981;PMS5003;49075;53.988;27.678;2023-02-28T23:56:39;33.6;32.8;25.2
